sensor_id;sensor_type;location;lat;lon;timestamp;pressure;altitude;pressure_sealevel;temperature;humidity
6851;BME280;3464;42.728;23.296;2024-02-04T00:01:40;95643.59;;;17.42;39.35
6851;BME280;3464;42.728;23.296;2024-02-04T00:04:06;95632.92;;;17.12;39.65
6851;BME280;3464;42.728;23.296;2024-02-04T00:06:33;95638.42;;;16.73;40.38
6851;BME280;3464;42.728;23.296;2024-02-04T00:09:02;95643.16;;;16.64;40.69
6851;BME280;3464;42.728;23.296;2024-02-04T00:11:50;95629.07;;;16.73;40.53
6851;BME280;3464;42.728;23.296;2024-02-04T00:14:16;95636.72;;;16.72;40.94
6851;BME280;3464;42.728;23.296;2024-02-04T00:16:45;95637.66;;;17.46;39.84
6851;BME280;3464;42.728;23.296;2024-02-04T00:19:14;95635.02;;;17.15;40.11
6851;BME280;3464;42.728;23.296;2024-02-04T00:21:43;95640.47;;;16.80;40.93
6851;BME280;3464;42.728;23.296;2024-02-04T00:24:11;95641.56;;;17.32;40.18
6851;BME280;3464;42.728;23.296;2024-02-04T00:26:37;95640.02;;;17.22;40.36
6851;BME280;3464;42.728;23.296;2024-02-04T00:29:04;95637.39;;;16.89;41.03
6851;BME280;3464;42.728;23.296;2024-02-04T00:31:30;95635.35;;;17.60;39.98
6851;BME280;3464;42.728;23.296;2024-02-04T00:33:57;95643.06;;;17.55;39.78
6851;BME280;3464;42.728;23.296;2024-02-04T00:36:25;95634.11;;;17.19;40.43
6851;BME280;3464;42.728;23.296;2024-02-04T00:38:51;95633.08;;;16.97;40.81
6851;BME280;3464;42.728;23.296;2024-02-04T00:41:18;95639.04;;;17.71;40.01
6851;BME280;3464;42.728;23.296;2024-02-04T00:43:44;95639.31;;;18.12;39.34
6851;BME280;3464;42.728;23.296;2024-02-04T00:46:11;95635.16;;;18.34;38.92
6851;BME280;3464;42.728;23.296;2024-02-04T00:48:38;95633.70;;;18.17;39.08
6851;BME280;3464;42.728;23.296;2024-02-04T00:51:04;95633.02;;;17.77;39.85
6851;BME280;3464;42.728;23.296;2024-02-04T00:53:31;95631.28;;;17.80;39.92
6851;BME280;3464;42.728;23.296;2024-02-04T00:56:05;95634.66;;;17.81;39.98
6851;BME280;3464;42.728;23.296;2024-02-04T00:58:31;95626.86;;;18.20;39.17
6851;BME280;3464;42.728;23.296;2024-02-04T01:00:59;95629.88;;;18.18;39.20
6851;BME280;3464;42.728;23.296;2024-02-04T01:03:25;95630.02;;;18.38;38.94
6851;BME280;3464;42.728;23.296;2024-02-04T01:05:52;95628.36;;;18.34;38.91
6851;BME280;3464;42.728;23.296;2024-02-04T01:08:20;95635.08;;;17.81;39.49
6851;BME280;3464;42.728;23.296;2024-02-04T01:10:46;95633.05;;;17.75;39.67
6851;BME280;3464;42.728;23.296;2024-02-04T01:13:14;95634.63;;;17.52;40.09
6851;BME280;3464;42.728;23.296;2024-02-04T01:15:41;95637.89;;;17.92;39.50
6851;BME280;3464;42.728;23.296;2024-02-04T01:18:08;95628.16;;;17.58;39.82
6851;BME280;3464;42.728;23.296;2024-02-04T01:20:34;95627.36;;;17.54;40.14
6851;BME280;3464;42.728;23.296;2024-02-04T01:23:02;95625.06;;;17.33;40.59
6851;BME280;3464;42.728;23.296;2024-02-04T01:25:28;95628.09;;;17.26;40.56
6851;BME280;3464;42.728;23.296;2024-02-04T01:27:55;95624.59;;;16.98;41.21
6851;BME280;3464;42.728;23.296;2024-02-04T01:30:22;95621.98;;;17.05;41.19
6851;BME280;3464;42.728;23.296;2024-02-04T01:32:48;95621.02;;;16.75;41.67
6851;BME280;3464;42.728;23.296;2024-02-04T01:35:15;95624.41;;;16.75;41.83
6851;BME280;3464;42.728;23.296;2024-02-04T01:37:44;95624.91;;;16.68;42.26
6851;BME280;3464;42.728;23.296;2024-02-04T01:40:11;95626.55;;;16.72;42.30
6851;BME280;3464;42.728;23.296;2024-02-04T01:42:38;95620.91;;;17.26;41.52
6851;BME280;3464;42.728;23.296;2024-02-04T01:45:05;95616.82;;;17.51;41.08
6851;BME280;3464;42.728;23.296;2024-02-04T01:47:31;95615.55;;;17.80;40.65
6851;BME280;3464;42.728;23.296;2024-02-04T01:49:58;95614.43;;;17.99;40.37
6851;BME280;3464;42.728;23.296;2024-02-04T01:52:24;95610.52;;;17.44;41.05
6851;BME280;3464;42.728;23.296;2024-02-04T01:54:51;95609.55;;;17.85;40.65
6851;BME280;3464;42.728;23.296;2024-02-04T01:57:18;95609.57;;;17.83;40.89
6851;BME280;3464;42.728;23.296;2024-02-04T01:59:45;95607.81;;;17.88;40.81
6851;BME280;3464;42.728;23.296;2024-02-04T02:02:13;95616.67;;;18.20;40.28
6851;BME280;3464;42.728;23.296;2024-02-04T02:04:40;95602.93;;;18.03;40.52
6851;BME280;3464;42.728;23.296;2024-02-04T02:07:07;95610.95;;;17.77;41.06
6851;BME280;3464;42.728;23.296;2024-02-04T02:09:34;95604.44;;;18.43;40.02
6851;BME280;3464;42.728;23.296;2024-02-04T02:12:07;95605.71;;;17.86;40.77
6851;BME280;3464;42.728;23.296;2024-02-04T02:14:36;95598.28;;;18.02;40.80
6851;BME280;3464;42.728;23.296;2024-02-04T02:17:03;95597.63;;;17.57;41.34
6851;BME280;3464;42.728;23.296;2024-02-04T02:19:36;95597.89;;;17.69;41.22
6851;BME280;3464;42.728;23.296;2024-02-04T02:22:17;95602.13;;;18.00;40.91
6851;BME280;3464;42.728;23.296;2024-02-04T02:24:34;95593.95;;;18.08;40.90
6851;BME280;3464;42.728;23.296;2024-02-04T02:27:01;95583.91;;;17.68;41.67
6851;BME280;3464;42.728;23.296;2024-02-04T02:29:28;95594.97;;;18.51;40.36
6851;BME280;3464;42.728;23.296;2024-02-04T02:31:55;95581.08;;;18.45;40.48
6851;BME280;3464;42.728;23.296;2024-02-04T02:34:22;95588.42;;;18.33;40.53
6851;BME280;3464;42.728;23.296;2024-02-04T02:36:52;95580.47;;;18.54;40.14
6851;BME280;3464;42.728;23.296;2024-02-04T02:39:18;95578.05;;;19.16;39.35
6851;BME280;3464;42.728;23.296;2024-02-04T02:41:44;95584.63;;;18.32;40.59
6851;BME280;3464;42.728;23.296;2024-02-04T02:44:11;95576.83;;;18.67;40.14
6851;BME280;3464;42.728;23.296;2024-02-04T02:46:39;95575.81;;;18.52;40.27
6851;BME280;3464;42.728;23.296;2024-02-04T02:49:06;95565.17;;;18.78;40.17
6851;BME280;3464;42.728;23.296;2024-02-04T02:51:33;95568.52;;;18.31;40.78
6851;BME280;3464;42.728;23.296;2024-02-04T02:54:00;95571.94;;;18.29;41.03
6851;BME280;3464;42.728;23.296;2024-02-04T02:56:28;95569.53;;;18.20;41.08
6851;BME280;3464;42.728;23.296;2024-02-04T02:58:58;95573.14;;;18.34;40.93
6851;BME280;3464;42.728;23.296;2024-02-04T03:01:26;95569.17;;;18.44;40.56
6851;BME280;3464;42.728;23.296;2024-02-04T03:03:52;95571.66;;;18.72;40.30
6851;BME280;3464;42.728;23.296;2024-02-04T03:06:20;95576.28;;;18.75;40.13
6851;BME280;3464;42.728;23.296;2024-02-04T03:08:47;95573.05;;;18.41;40.47
6851;BME280;3464;42.728;23.296;2024-02-04T03:11:14;95574.36;;;18.63;40.42
6851;BME280;3464;42.728;23.296;2024-02-04T03:13:40;95565.30;;;18.70;40.19
6851;BME280;3464;42.728;23.296;2024-02-04T03:16:11;95570.05;;;18.89;39.58
6851;BME280;3464;42.728;23.296;2024-02-04T03:18:40;95578.02;;;18.48;40.35
6851;BME280;3464;42.728;23.296;2024-02-04T03:21:13;95579.97;;;18.59;40.03
6851;BME280;3464;42.728;23.296;2024-02-04T03:23:41;95568.80;;;18.87;39.62
6851;BME280;3464;42.728;23.296;2024-02-04T03:26:07;95574.41;;;18.07;40.71
6851;BME280;3464;42.728;23.296;2024-02-04T03:28:34;95578.69;;;18.33;40.37
6851;BME280;3464;42.728;23.296;2024-02-04T03:31:02;95574.23;;;18.70;39.98
6851;BME280;3464;42.728;23.296;2024-02-04T03:33:28;95571.45;;;18.08;40.41
6851;BME280;3464;42.728;23.296;2024-02-04T03:35:57;95564.52;;;18.42;40.34
6851;BME280;3464;42.728;23.296;2024-02-04T03:38:23;95565.92;;;18.07;40.90
6851;BME280;3464;42.728;23.296;2024-02-04T03:40:51;95555.27;;;17.82;41.17
6851;BME280;3464;42.728;23.296;2024-02-04T03:43:18;95541.73;;;18.32;40.82
6851;BME280;3464;42.728;23.296;2024-02-04T03:45:45;95541.23;;;18.38;40.29
6851;BME280;3464;42.728;23.296;2024-02-04T03:48:11;95545.58;;;18.04;41.01
6851;BME280;3464;42.728;23.296;2024-02-04T03:50:38;95533.33;;;17.74;41.42
6851;BME280;3464;42.728;23.296;2024-02-04T03:53:05;95533.17;;;18.84;40.04
6851;BME280;3464;42.728;23.296;2024-02-04T03:55:34;95538.83;;;19.21;39.28
6851;BME280;3464;42.728;23.296;2024-02-04T03:58:01;95551.41;;;17.86;41.83
6851;BME280;3464;42.728;23.296;2024-02-04T04:00:30;95564.41;;;18.23;41.03
6851;BME280;3464;42.728;23.296;2024-02-04T04:02:57;95549.46;;;17.74;41.80
6851;BME280;3464;42.728;23.296;2024-02-04T04:05:24;95566.68;;;18.13;41.35
6851;BME280;3464;42.728;23.296;2024-02-04T04:07:52;95565.39;;;17.58;41.99
6851;BME280;3464;42.728;23.296;2024-02-04T04:10:20;95548.98;;;18.04;41.45
6851;BME280;3464;42.728;23.296;2024-02-04T04:12:46;95559.61;;;17.46;42.45
6851;BME280;3464;42.728;23.296;2024-02-04T04:15:15;95557.83;;;18.35;40.86
6851;BME280;3464;42.728;23.296;2024-02-04T04:17:43;95557.52;;;17.73;41.71
6851;BME280;3464;42.728;23.296;2024-02-04T04:20:10;95547.51;;;17.89;41.50
6851;BME280;3464;42.728;23.296;2024-02-04T04:22:39;95544.39;;;18.00;41.66
6851;BME280;3464;42.728;23.296;2024-02-04T04:25:08;95554.41;;;17.82;41.71
6851;BME280;3464;42.728;23.296;2024-02-04T04:27:34;95564.32;;;18.78;41.14
6851;BME280;3464;42.728;23.296;2024-02-04T04:30:01;95557.97;;;18.26;40.95
6851;BME280;3464;42.728;23.296;2024-02-04T04:32:28;95560.41;;;18.82;40.96
6851;BME280;3464;42.728;23.296;2024-02-04T04:34:58;95563.86;;;19.23;39.93
6851;BME280;3464;42.728;23.296;2024-02-04T04:37:27;95557.29;;;19.54;39.16
6851;BME280;3464;42.728;23.296;2024-02-04T04:39:54;95558.33;;;19.23;39.52
6851;BME280;3464;42.728;23.296;2024-02-04T04:42:20;95563.69;;;19.34;39.29
6851;BME280;3464;42.728;23.296;2024-02-04T04:44:48;95558.00;;;19.98;38.67
6851;BME280;3464;42.728;23.296;2024-02-04T04:47:16;95552.29;;;20.57;37.58
6851;BME280;3464;42.728;23.296;2024-02-04T04:49:44;95557.69;;;19.74;38.33
6851;BME280;3464;42.728;23.296;2024-02-04T04:52:11;95558.15;;;19.33;39.20
6851;BME280;3464;42.728;23.296;2024-02-04T04:54:39;95553.89;;;19.34;39.05
6851;BME280;3464;42.728;23.296;2024-02-04T04:57:06;95554.86;;;19.05;39.43
6851;BME280;3464;42.728;23.296;2024-02-04T04:59:34;95556.86;;;19.11;39.48
6851;BME280;3464;42.728;23.296;2024-02-04T05:02:03;95558.94;;;18.93;39.66
6851;BME280;3464;42.728;23.296;2024-02-04T05:04:31;95564.94;;;17.88;41.40
6851;BME280;3464;42.728;23.296;2024-02-04T05:06:58;95550.18;;;17.83;41.53
6851;BME280;3464;42.728;23.296;2024-02-04T05:09:25;95550.93;;;18.43;40.70
6851;BME280;3464;42.728;23.296;2024-02-04T05:11:53;95556.31;;;18.23;40.73
6851;BME280;3464;42.728;23.296;2024-02-04T05:17:04;95557.43;;;17.79;41.32
6851;BME280;3464;42.728;23.296;2024-02-04T05:19:33;95562.51;;;17.81;41.73
6851;BME280;3464;42.728;23.296;2024-02-04T05:22:00;95567.65;;;18.06;41.13
6851;BME280;3464;42.728;23.296;2024-02-04T05:24:26;95566.53;;;18.22;40.84
6851;BME280;3464;42.728;23.296;2024-02-04T05:26:53;95570.02;;;17.61;41.77
6851;BME280;3464;42.728;23.296;2024-02-04T05:29:20;95572.54;;;17.91;41.39
6851;BME280;3464;42.728;23.296;2024-02-04T05:31:47;95573.59;;;18.06;41.29
6851;BME280;3464;42.728;23.296;2024-02-04T05:34:16;95585.55;;;17.71;41.83
6851;BME280;3464;42.728;23.296;2024-02-04T05:36:44;95583.52;;;17.96;41.43
6851;BME280;3464;42.728;23.296;2024-02-04T05:39:12;95567.70;;;18.01;41.21
6851;BME280;3464;42.728;23.296;2024-02-04T05:41:41;95578.06;;;17.62;41.71
6851;BME280;3464;42.728;23.296;2024-02-04T05:44:07;95575.63;;;17.53;42.13
6851;BME280;3464;42.728;23.296;2024-02-04T05:46:34;95575.33;;;18.03;41.17
6851;BME280;3464;42.728;23.296;2024-02-04T05:49:00;95584.70;;;17.72;41.33
6851;BME280;3464;42.728;23.296;2024-02-04T05:51:27;95570.66;;;18.29;40.61
6851;BME280;3464;42.728;23.296;2024-02-04T05:53:55;95582.46;;;18.09;40.89
6851;BME280;3464;42.728;23.296;2024-02-04T05:56:26;95587.37;;;17.93;41.11
6851;BME280;3464;42.728;23.296;2024-02-04T05:58:55;95580.87;;;18.27;40.88
6851;BME280;3464;42.728;23.296;2024-02-04T06:01:23;95586.82;;;17.72;41.42
6851;BME280;3464;42.728;23.296;2024-02-04T06:03:50;95592.44;;;17.65;41.60
6851;BME280;3464;42.728;23.296;2024-02-04T06:06:17;95581.58;;;17.51;41.79
6851;BME280;3464;42.728;23.296;2024-02-04T06:08:45;95578.59;;;17.55;41.92
6851;BME280;3464;42.728;23.296;2024-02-04T06:11:14;95586.91;;;17.96;40.82
6851;BME280;3464;42.728;23.296;2024-02-04T06:13:42;95593.63;;;17.70;41.33
6851;BME280;3464;42.728;23.296;2024-02-04T06:16:08;95598.06;;;17.21;42.46
6851;BME280;3464;42.728;23.296;2024-02-04T06:18:36;95588.95;;;17.37;42.09
6851;BME280;3464;42.728;23.296;2024-02-04T06:21:03;95584.41;;;17.93;41.32
6851;BME280;3464;42.728;23.296;2024-02-04T06:23:30;95598.72;;;18.28;40.50
6851;BME280;3464;42.728;23.296;2024-02-04T06:25:59;95598.97;;;18.42;40.46
6851;BME280;3464;42.728;23.296;2024-02-04T06:28:28;95602.28;;;18.71;40.17
6851;BME280;3464;42.728;23.296;2024-02-04T06:30:56;95606.55;;;18.68;40.29
6851;BME280;3464;42.728;23.296;2024-02-04T06:33:24;95607.91;;;18.65;40.21
6851;BME280;3464;42.728;23.296;2024-02-04T06:35:51;95618.58;;;18.08;40.79
6851;BME280;3464;42.728;23.296;2024-02-04T06:38:18;95621.78;;;18.48;40.58
6851;BME280;3464;42.728;23.296;2024-02-04T06:40:45;95625.02;;;18.59;40.08
6851;BME280;3464;42.728;23.296;2024-02-04T06:43:11;95623.36;;;18.56;40.15
6851;BME280;3464;42.728;23.296;2024-02-04T06:45:38;95623.20;;;19.56;38.65
6851;BME280;3464;42.728;23.296;2024-02-04T06:48:05;95615.92;;;19.79;38.46
6851;BME280;3464;42.728;23.296;2024-02-04T06:50:34;95611.42;;;19.71;38.23
6851;BME280;3464;42.728;23.296;2024-02-04T06:53:04;95612.55;;;19.96;38.18
6851;BME280;3464;42.728;23.296;2024-02-04T06:55:33;95614.83;;;19.70;38.68
6851;BME280;3464;42.728;23.296;2024-02-04T06:58:01;95615.02;;;19.61;38.79
6851;BME280;3464;42.728;23.296;2024-02-04T07:00:36;95616.56;;;19.49;38.66
6851;BME280;3464;42.728;23.296;2024-02-04T07:03:08;95615.11;;;19.56;38.63
6851;BME280;3464;42.728;23.296;2024-02-04T07:05:37;95609.14;;;20.35;37.46
6851;BME280;3464;42.728;23.296;2024-02-04T07:08:03;95620.77;;;19.91;38.18
6851;BME280;3464;42.728;23.296;2024-02-04T07:10:34;95612.83;;;19.43;38.82
6851;BME280;3464;42.728;23.296;2024-02-04T07:13:05;95615.02;;;20.20;38.12
6851;BME280;3464;42.728;23.296;2024-02-04T07:15:34;95616.73;;;20.20;37.97
6851;BME280;3464;42.728;23.296;2024-02-04T07:18:01;95625.83;;;20.49;37.51
6851;BME280;3464;42.728;23.296;2024-02-04T07:20:29;95613.08;;;20.48;37.39
6851;BME280;3464;42.728;23.296;2024-02-04T07:22:58;95611.40;;;20.64;37.36
6851;BME280;3464;42.728;23.296;2024-02-04T07:25:25;95617.77;;;20.30;37.68
6851;BME280;3464;42.728;23.296;2024-02-04T07:28:06;95610.19;;;21.27;36.39
6851;BME280;3464;42.728;23.296;2024-02-04T07:30:35;95617.96;;;21.08;36.36
6851;BME280;3464;42.728;23.296;2024-02-04T07:33:05;95616.03;;;21.00;36.48
6851;BME280;3464;42.728;23.296;2024-02-04T07:35:34;95606.55;;;20.70;37.12
6851;BME280;3464;42.728;23.296;2024-02-04T07:38:22;95603.42;;;21.40;36.32
6851;BME280;3464;42.728;23.296;2024-02-04T07:40:50;95611.11;;;21.54;36.08
6851;BME280;3464;42.728;23.296;2024-02-04T07:43:17;95617.52;;;21.25;36.44
6851;BME280;3464;42.728;23.296;2024-02-04T07:45:44;95613.50;;;20.65;37.11
6851;BME280;3464;42.728;23.296;2024-02-04T07:48:13;95616.53;;;21.44;35.95
6851;BME280;3464;42.728;23.296;2024-02-04T07:50:42;95621.36;;;21.25;36.38
6851;BME280;3464;42.728;23.296;2024-02-04T07:53:09;95618.59;;;21.00;36.47
6851;BME280;3464;42.728;23.296;2024-02-04T07:55:37;95616.48;;;21.46;36.45
6851;BME280;3464;42.728;23.296;2024-02-04T07:58:05;95617.64;;;21.20;36.52
6851;BME280;3464;42.728;23.296;2024-02-04T08:00:31;95616.72;;;21.98;35.43
6851;BME280;3464;42.728;23.296;2024-02-04T08:03:01;95616.23;;;21.69;35.67
6851;BME280;3464;42.728;23.296;2024-02-04T08:05:30;95617.59;;;21.82;35.61
6851;BME280;3464;42.728;23.296;2024-02-04T08:07:57;95617.05;;;22.01;35.34
6851;BME280;3464;42.728;23.296;2024-02-04T08:10:25;95618.14;;;21.92;35.00
6851;BME280;3464;42.728;23.296;2024-02-04T08:12:51;95616.67;;;21.99;35.25
6851;BME280;3464;42.728;23.296;2024-02-04T08:15:19;95613.91;;;21.91;35.43
6851;BME280;3464;42.728;23.296;2024-02-04T08:17:46;95616.52;;;21.75;35.59
6851;BME280;3464;42.728;23.296;2024-02-04T08:20:13;95609.56;;;21.79;35.61
6851;BME280;3464;42.728;23.296;2024-02-04T08:22:40;95605.67;;;21.81;36.14
6851;BME280;3464;42.728;23.296;2024-02-04T08:25:08;95616.91;;;21.46;36.61
6851;BME280;3464;42.728;23.296;2024-02-04T08:27:36;95592.41;;;21.06;37.26
6851;BME280;3464;42.728;23.296;2024-02-04T08:30:03;95601.14;;;21.29;36.98
6851;BME280;3464;42.728;23.296;2024-02-04T08:32:31;95600.94;;;20.73;37.78
6851;BME280;3464;42.728;23.296;2024-02-04T08:34:58;95603.20;;;20.16;38.54
6851;BME280;3464;42.728;23.296;2024-02-04T08:37:25;95611.59;;;20.39;38.48
6851;BME280;3464;42.728;23.296;2024-02-04T08:39:51;95600.44;;;20.24;38.49
6851;BME280;3464;42.728;23.296;2024-02-04T08:42:18;95606.17;;;19.56;39.78
6851;BME280;3464;42.728;23.296;2024-02-04T08:44:45;95606.84;;;19.85;39.54
6851;BME280;3464;42.728;23.296;2024-02-04T08:47:12;95624.43;;;20.18;39.22
6851;BME280;3464;42.728;23.296;2024-02-04T08:49:39;95620.88;;;21.11;37.70
6851;BME280;3464;42.728;23.296;2024-02-04T08:52:07;95622.70;;;21.38;37.40
6851;BME280;3464;42.728;23.296;2024-02-04T08:54:35;95625.91;;;21.14;37.55
6851;BME280;3464;42.728;23.296;2024-02-04T08:57:04;95628.29;;;22.65;36.01
6851;BME280;3464;42.728;23.296;2024-02-04T08:59:32;95650.69;;;21.76;36.33
6851;BME280;3464;42.728;23.296;2024-02-04T09:02:05;95650.47;;;21.83;36.44
6851;BME280;3464;42.728;23.296;2024-02-04T09:04:33;95650.70;;;22.19;36.27
6851;BME280;3464;42.728;23.296;2024-02-04T09:07:00;95647.27;;;22.32;35.77
6851;BME280;3464;42.728;23.296;2024-02-04T09:09:26;95650.88;;;22.54;35.85
6851;BME280;3464;42.728;23.296;2024-02-04T09:11:53;95661.05;;;22.42;35.78
6851;BME280;3464;42.728;23.296;2024-02-04T09:14:19;95654.66;;;21.86;36.38
6851;BME280;3464;42.728;23.296;2024-02-04T09:16:46;95646.04;;;21.27;36.92
6851;BME280;3464;42.728;23.296;2024-02-04T09:19:12;95654.64;;;21.40;37.32
6851;BME280;3464;42.728;23.296;2024-02-04T09:21:40;95656.55;;;21.33;37.15
6851;BME280;3464;42.728;23.296;2024-02-04T09:24:07;95664.23;;;21.33;37.29
6851;BME280;3464;42.728;23.296;2024-02-04T09:26:39;95668.89;;;21.35;36.86
6851;BME280;3464;42.728;23.296;2024-02-04T09:29:20;95664.36;;;21.28;37.12
6851;BME280;3464;42.728;23.296;2024-02-04T09:31:46;95682.39;;;20.72;38.03
6851;BME280;3464;42.728;23.296;2024-02-04T09:34:14;95672.08;;;21.58;36.91
6851;BME280;3464;42.728;23.296;2024-02-04T09:36:43;95673.60;;;22.24;36.08
6851;BME280;3464;42.728;23.296;2024-02-04T09:39:13;95667.72;;;23.01;34.99
6851;BME280;3464;42.728;23.296;2024-02-04T09:41:40;95660.47;;;22.62;35.44
6851;BME280;3464;42.728;23.296;2024-02-04T09:44:06;95655.84;;;23.23;34.87
6851;BME280;3464;42.728;23.296;2024-02-04T09:46:33;95649.16;;;23.56;35.05
6851;BME280;3464;42.728;23.296;2024-02-04T09:49:01;95657.84;;;22.77;35.59
6851;BME280;3464;42.728;23.296;2024-02-04T09:51:28;95661.23;;;22.65;35.49
6851;BME280;3464;42.728;23.296;2024-02-04T09:53:57;95644.65;;;24.08;33.85
6851;BME280;3464;42.728;23.296;2024-02-04T09:56:33;95651.83;;;24.00;33.72
6851;BME280;3464;42.728;23.296;2024-02-04T10:01:44;95640.92;;;23.09;35.48
6851;BME280;3464;42.728;23.296;2024-02-04T10:04:26;95645.41;;;23.03;35.24
6851;BME280;3464;42.728;23.296;2024-02-04T10:07:03;95646.89;;;21.88;37.17
6851;BME280;3464;42.728;23.296;2024-02-04T10:12:20;95650.23;;;22.87;35.93
6851;BME280;3464;42.728;23.296;2024-02-04T10:14:51;95615.37;;;22.14;36.29
6851;BME280;3464;42.728;23.296;2024-02-04T10:17:23;95650.59;;;21.48;38.15
6851;BME280;3464;42.728;23.296;2024-02-04T10:19:50;95655.55;;;21.06;38.72
6851;BME280;3464;42.728;23.296;2024-02-04T10:22:18;95647.22;;;22.33;37.67
6851;BME280;3464;42.728;23.296;2024-02-04T10:24:45;95651.08;;;23.73;35.23
6851;BME280;3464;42.728;23.296;2024-02-04T10:27:15;95644.98;;;22.37;36.88
6851;BME280;3464;42.728;23.296;2024-02-04T10:29:49;95640.70;;;22.37;36.73
6851;BME280;3464;42.728;23.296;2024-02-04T10:32:21;95633.41;;;22.79;36.23
6851;BME280;3464;42.728;23.296;2024-02-04T10:34:52;95626.20;;;22.51;36.99
6851;BME280;3464;42.728;23.296;2024-02-04T10:37:33;95627.20;;;23.35;35.60
6851;BME280;3464;42.728;23.296;2024-02-04T10:40:02;95625.05;;;22.19;37.16
6851;BME280;3464;42.728;23.296;2024-02-04T10:42:31;95623.02;;;20.60;38.96
6851;BME280;3464;42.728;23.296;2024-02-04T10:45:01;95629.45;;;20.91;38.92
6851;BME280;3464;42.728;23.296;2024-02-04T10:47:32;95635.70;;;21.61;38.04
6851;BME280;3464;42.728;23.296;2024-02-04T10:50:00;95645.86;;;21.94;37.59
6851;BME280;3464;42.728;23.296;2024-02-04T10:52:28;95641.39;;;21.09;38.66
6851;BME280;3464;42.728;23.296;2024-02-04T10:54:57;95644.45;;;20.89;38.96
6851;BME280;3464;42.728;23.296;2024-02-04T10:57:24;95643.87;;;21.13;38.61
6851;BME280;3464;42.728;23.296;2024-02-04T10:59:51;95638.20;;;20.13;39.86
6851;BME280;3464;42.728;23.296;2024-02-04T11:02:18;95637.59;;;20.90;38.85
6851;BME280;3464;42.728;23.296;2024-02-04T11:04:44;95633.02;;;21.50;38.15
6851;BME280;3464;42.728;23.296;2024-02-04T11:07:11;95636.53;;;21.31;38.31
6851;BME280;3464;42.728;23.296;2024-02-04T11:09:38;95641.92;;;21.37;38.61
6851;BME280;3464;42.728;23.296;2024-02-04T11:12:09;95641.47;;;21.69;37.94
6851;BME280;3464;42.728;23.296;2024-02-04T11:14:34;95638.03;;;22.00;37.49
6851;BME280;3464;42.728;23.296;2024-02-04T11:17:20;95630.92;;;21.02;38.67
6851;BME280;3464;42.728;23.296;2024-02-04T11:20:05;95628.12;;;21.26;38.63
6851;BME280;3464;42.728;23.296;2024-02-04T11:28:06;95623.83;;;21.73;37.55
6851;BME280;3464;42.728;23.296;2024-02-04T11:30:33;95625.97;;;21.72;37.88
6851;BME280;3464;42.728;23.296;2024-02-04T11:33:00;95607.18;;;21.72;37.80
6851;BME280;3464;42.728;23.296;2024-02-04T11:35:27;95613.11;;;21.75;37.62
6851;BME280;3464;42.728;23.296;2024-02-04T11:37:53;95606.53;;;20.87;38.51
6851;BME280;3464;42.728;23.296;2024-02-04T11:40:21;95608.85;;;20.98;38.51
6851;BME280;3464;42.728;23.296;2024-02-04T11:42:47;95606.05;;;21.06;38.25
6851;BME280;3464;42.728;23.296;2024-02-04T11:45:15;95604.88;;;21.64;37.57
6851;BME280;3464;42.728;23.296;2024-02-04T11:47:43;95591.16;;;22.49;36.52
6851;BME280;3464;42.728;23.296;2024-02-04T11:50:10;95592.02;;;22.22;36.45
6851;BME280;3464;42.728;23.296;2024-02-04T11:52:37;95591.42;;;22.92;35.91
6851;BME280;3464;42.728;23.296;2024-02-04T11:55:05;95570.19;;;23.25;35.52
6851;BME280;3464;42.728;23.296;2024-02-04T11:57:40;95568.69;;;22.43;36.50
6851;BME280;3464;42.728;23.296;2024-02-04T12:00:15;95558.98;;;23.50;35.06
6851;BME280;3464;42.728;23.296;2024-02-04T12:03:04;95546.12;;;23.15;35.54
6851;BME280;3464;42.728;23.296;2024-02-04T12:05:32;95552.88;;;23.64;34.89
6851;BME280;3464;42.728;23.296;2024-02-04T12:08:02;95543.13;;;23.61;35.16
6851;BME280;3464;42.728;23.296;2024-02-04T12:10:35;95552.52;;;24.49;34.02
6851;BME280;3464;42.728;23.296;2024-02-04T12:13:05;95546.62;;;24.26;33.83
6851;BME280;3464;42.728;23.296;2024-02-04T12:15:35;95548.55;;;23.54;34.63
6851;BME280;3464;42.728;23.296;2024-02-04T12:18:05;95547.19;;;24.95;33.16
6851;BME280;3464;42.728;23.296;2024-02-04T12:20:32;95534.84;;;23.54;34.62
6851;BME280;3464;42.728;23.296;2024-02-04T12:23:04;95543.09;;;22.41;35.81
6851;BME280;3464;42.728;23.296;2024-02-04T12:25:34;95534.99;;;23.15;34.87
6851;BME280;3464;42.728;23.296;2024-02-04T12:28:01;95533.02;;;22.98;35.52
6851;BME280;3464;42.728;23.296;2024-02-04T12:30:29;95531.33;;;23.34;35.15
6851;BME280;3464;42.728;23.296;2024-02-04T12:32:57;95526.05;;;23.83;34.36
6851;BME280;3464;42.728;23.296;2024-02-04T12:35:43;95523.39;;;24.07;34.38
6851;BME280;3464;42.728;23.296;2024-02-04T12:38:10;95519.79;;;24.93;33.32
6851;BME280;3464;42.728;23.296;2024-02-04T12:40:40;95514.14;;;24.34;33.97
6851;BME280;3464;42.728;23.296;2024-02-04T12:43:10;95518.78;;;25.06;33.43
6851;BME280;3464;42.728;23.296;2024-02-04T12:48:53;95524.11;;;25.22;32.88
6851;BME280;3464;42.728;23.296;2024-02-04T12:51:25;95525.97;;;24.59;33.58
6851;BME280;3464;42.728;23.296;2024-02-04T12:54:23;95523.53;;;25.45;32.60
6851;BME280;3464;42.728;23.296;2024-02-04T12:56:40;95520.93;;;23.93;33.99
6851;BME280;3464;42.728;23.296;2024-02-04T12:59:07;95527.78;;;23.01;35.35
6851;BME280;3464;42.728;23.296;2024-02-04T13:01:34;95529.78;;;21.76;36.82
6851;BME280;3464;42.728;23.296;2024-02-04T13:04:00;95520.55;;;23.47;34.94
6851;BME280;3464;42.728;23.296;2024-02-04T13:06:29;95523.73;;;22.71;35.75
6851;BME280;3464;42.728;23.296;2024-02-04T13:09:09;95531.22;;;23.70;35.47
6851;BME280;3464;42.728;23.296;2024-02-04T13:11:42;95524.52;;;23.44;35.30
6851;BME280;3464;42.728;23.296;2024-02-04T13:14:25;95531.02;;;24.50;34.05
6851;BME280;3464;42.728;23.296;2024-02-04T13:16:53;95530.32;;;24.98;33.66
6851;BME280;3464;42.728;23.296;2024-02-04T13:19:20;95536.23;;;23.52;34.50
6851;BME280;3464;42.728;23.296;2024-02-04T13:21:46;95547.94;;;23.24;35.95
6851;BME280;3464;42.728;23.296;2024-02-04T13:24:14;95545.73;;;23.49;35.26
6851;BME280;3464;42.728;23.296;2024-02-04T13:26:39;95554.48;;;23.08;36.40
6851;BME280;3464;42.728;23.296;2024-02-04T13:29:07;95550.36;;;23.63;34.79
6851;BME280;3464;42.728;23.296;2024-02-04T13:31:36;95547.69;;;24.00;35.47
6851;BME280;3464;42.728;23.296;2024-02-04T13:34:02;95550.84;;;24.38;34.22